createdAt,value
2023-02-12T00:03:13.602Z,101736.06
2023-02-12T00:07:15.441Z,101727.00
2023-02-12T00:11:20.092Z,101737.72
2023-02-12T00:15:22.074Z,101742.44
2023-02-12T00:19:24.218Z,101744.88
2023-02-12T00:23:26.105Z,101754.78
2023-02-12T00:27:28.080Z,101752.84
2023-02-12T00:31:32.781Z,101766.53
2023-02-12T00:35:34.708Z,101757.47
2023-02-12T00:39:38.120Z,101764.28
2023-02-12T00:43:39.974Z,101756.72
2023-02-12T00:47:44.997Z,101759.56
2023-02-12T00:51:50.677Z,101742.28
2023-02-12T00:55:52.762Z,101753.78
2023-02-12T00:59:54.887Z,101747.03
2023-02-12T01:03:56.693Z,101766.78
2023-02-12T01:07:58.512Z,101757.53
2023-02-12T01:12:00.343Z,101775.66
2023-02-12T01:16:14.302Z,101766.44
2023-02-12T01:20:17.699Z,101780.88
2023-02-12T01:24:19.581Z,101771.50
2023-02-12T01:28:21.394Z,101781.22
2023-02-12T01:32:23.518Z,101777.19
2023-02-12T01:36:26.358Z,101768.28
2023-02-12T01:40:28.349Z,101785.75
2023-02-12T01:44:31.138Z,101766.94
2023-02-12T01:48:44.850Z,101769.03
2023-02-12T01:52:50.530Z,101777.84
2023-02-12T01:56:52.419Z,101768.94
2023-02-12T02:00:54.162Z,101781.22
2023-02-12T02:05:01.852Z,101781.28
2023-02-12T02:09:04.127Z,101776.44
2023-02-12T02:13:24.331Z,101779.53
2023-02-12T02:18:01.409Z,101779.56
2023-02-12T02:22:30.276Z,101772.16
2023-02-12T02:26:51.028Z,101773.56
2023-02-12T02:31:07.285Z,101785.34
2023-02-12T02:35:22.169Z,101784.25
2023-02-12T02:39:40.892Z,101783.91
2023-02-12T02:43:51.237Z,101775.09
2023-02-12T02:48:32.824Z,101784.09
2023-02-12T02:52:39.997Z,101779.72
2023-02-12T02:56:44.207Z,101772.25
2023-02-12T03:01:19.740Z,101788.38
2023-02-12T03:05:33.038Z,101796.91
2023-02-12T03:09:59.614Z,101797.69
2023-02-12T03:14:12.001Z,101806.41
2023-02-12T03:18:20.169Z,101792.13
2023-02-12T03:22:26.837Z,101798.16
2023-02-12T03:27:02.528Z,101803.06
2023-02-12T03:31:40.594Z,101820.84
2023-02-12T03:35:48.155Z,101835.81
2023-02-12T03:39:56.270Z,101846.97
2023-02-12T03:44:23.147Z,101848.25
2023-02-12T03:48:54.253Z,101840.44
2023-02-12T03:52:56.045Z,101857.97
2023-02-12T03:57:14.161Z,101860.97
2023-02-12T04:01:16.234Z,101867.13
2023-02-12T04:05:27.252Z,101869.94
2023-02-12T04:09:29.408Z,101882.56
2023-02-12T04:13:51.004Z,101885.16
2023-02-12T04:18:20.673Z,101896.09
2023-02-12T04:22:54.043Z,101891.81
2023-02-12T04:27:02.357Z,101902.22
2023-02-12T04:31:29.955Z,101900.53
2023-02-12T04:35:40.294Z,101897.63
2023-02-12T04:39:42.345Z,101895.09
2023-02-12T04:43:44.216Z,101892.53
2023-02-12T04:47:46.889Z,101888.88
2023-02-12T04:51:49.101Z,101888.88
2023-02-12T04:55:50.941Z,101896.75
2023-02-12T04:59:52.850Z,101903.13
2023-02-12T05:03:54.785Z,101902.97
2023-02-12T05:07:56.776Z,101916.41
2023-02-12T05:11:58.612Z,101896.38
2023-02-12T05:16:00.750Z,101899.88
2023-02-12T05:20:02.621Z,101907.84
2023-02-12T05:24:04.804Z,101905.09
2023-02-12T05:28:06.674Z,101911.59
2023-02-12T05:32:08.977Z,101916.41
2023-02-12T05:36:18.388Z,101916.41
2023-02-12T05:40:20.251Z,101906.84
2023-02-12T05:44:22.123Z,101919.78
2023-02-12T05:48:23.957Z,101921.03
2023-02-12T05:52:25.748Z,101918.44
2023-02-12T05:56:31.428Z,101932.03
2023-02-12T06:00:33.301Z,101911.84
2023-02-12T06:04:35.201Z,101918.53
2023-02-12T06:08:37.340Z,101933.28
2023-02-12T06:12:39.245Z,101923.47
2023-02-12T06:16:44.110Z,101937.19
2023-02-12T06:20:57.003Z,101946.91
2023-02-12T06:25:27.930Z,101944.59
2023-02-12T06:29:29.989Z,101962.25
2023-02-12T06:33:33.129Z,101955.53
2023-02-12T06:37:37.169Z,101974.94
2023-02-12T06:41:39.398Z,101981.38
2023-02-12T06:45:44.424Z,101981.81
2023-02-12T06:49:48.784Z,101988.38
2023-02-12T06:53:56.559Z,101988.31
2023-02-12T06:57:58.465Z,101996.97
2023-02-12T07:02:07.785Z,102001.28
2023-02-12T07:06:10.043Z,102003.16
2023-02-12T07:10:11.928Z,101996.91
2023-02-12T07:14:15.662Z,102001.38
2023-02-12T07:18:17.659Z,102002.34
2023-02-12T07:22:20.821Z,102007.22
2023-02-12T07:26:22.800Z,102011.75
2023-02-12T07:30:24.734Z,102001.16
2023-02-12T07:34:26.822Z,102006.84
2023-02-12T07:38:29.203Z,102012.28
2023-02-12T07:42:31.189Z,102022.25
2023-02-12T07:47:03.806Z,102010.94
2023-02-12T07:51:11.085Z,102023.88
2023-02-12T07:55:13.042Z,102023.22
2023-02-12T07:59:17.081Z,102030.56
2023-02-12T08:03:18.905Z,102028.28
2023-02-12T08:07:53.949Z,102026.53
2023-02-12T08:12:06.706Z,102045.72
2023-02-12T08:16:17.019Z,102036.19
2023-02-12T08:20:31.766Z,102043.03
2023-02-12T08:24:33.693Z,102044.03
2023-02-12T08:28:36.304Z,102041.69
2023-02-12T08:32:38.780Z,102049.75
2023-02-12T08:36:40.725Z,102042.59
2023-02-12T08:40:48.507Z,102047.88
2023-02-12T08:44:52.162Z,102057.69
2023-02-12T08:49:10.116Z,102062.91
2023-02-12T08:53:12.041Z,102065.31
2023-02-12T08:57:13.957Z,102077.44
2023-02-12T09:01:23.194Z,102073.06
2023-02-12T09:05:25.222Z,102084.50
2023-02-12T09:09:27.274Z,102092.00
2023-02-12T09:13:32.232Z,102083.03
2023-02-12T09:17:34.286Z,102080.78
2023-02-12T09:21:36.148Z,102083.38
2023-02-12T09:25:45.435Z,102095.06
2023-02-12T09:29:48.424Z,102087.94
2023-02-12T09:33:53.382Z,102092.38
2023-02-12T09:37:57.016Z,102106.63
2023-02-12T09:42:35.104Z,102101.88
2023-02-12T09:46:48.486Z,102097.97
2023-02-12T09:50:55.622Z,102108.69
2023-02-12T09:54:57.577Z,102100.25
2023-02-12T09:59:02.853Z,102114.28
2023-02-12T10:03:05.974Z,102112.56
2023-02-12T10:07:31.226Z,102101.09
2023-02-12T10:12:04.651Z,102108.19
2023-02-12T10:16:30.382Z,102105.38
2023-02-12T10:20:46.698Z,102109.47
2023-02-12T10:25:09.343Z,102106.28
2023-02-12T10:29:23.427Z,102100.69
2023-02-12T10:33:47.059Z,102092.56
2023-02-12T10:38:00.699Z,102087.03
2023-02-12T10:42:16.453Z,102087.22
2023-02-12T10:46:18.417Z,102095.06
2023-02-12T10:50:40.727Z,102104.41
2023-02-12T10:54:49.810Z,102091.59
2023-02-12T10:59:08.169Z,102101.94
2023-02-12T11:03:59.055Z,102084.16
2023-02-12T11:08:04.659Z,102092.38
2023-02-12T11:12:31.267Z,102090.47
2023-02-12T11:16:59.600Z,102065.78
2023-02-12T11:21:16.714Z,102072.59
2023-02-12T11:25:19.166Z,102065.19
2023-02-12T11:29:36.737Z,102070.00
2023-02-12T11:33:39.114Z,102057.09
2023-02-12T11:37:42.689Z,102061.50
2023-02-12T11:41:46.927Z,102070.97
2023-02-12T11:45:50.204Z,102079.88
2023-02-12T11:50:24.928Z,102072.84
2023-02-12T11:54:33.050Z,102079.88
2023-02-12T11:58:40.597Z,102063.56
2023-02-12T12:03:17.091Z,102073.69
2023-02-12T12:07:26.385Z,102070.81
2023-02-12T12:11:55.024Z,102067.25
2023-02-12T12:16:58.384Z,102065.78
2023-02-12T12:21:28.495Z,102066.53
2023-02-12T12:25:38.207Z,102063.72
2023-02-12T12:29:55.507Z,102070.84
2023-02-12T12:34:19.383Z,102056.84
2023-02-12T12:38:52.613Z,102066.47
2023-02-12T12:43:20.882Z,102057.59
2023-02-12T12:48:05.219Z,102054.19
2023-02-12T12:52:18.105Z,102055.25
2023-02-12T12:56:37.403Z,102043.00
2023-02-12T13:01:21.251Z,102049.81
2023-02-12T13:06:04.544Z,102049.53
2023-02-12T13:10:25.589Z,102045.63
2023-02-12T13:15:00.637Z,102045.16
2023-02-12T13:19:32.936Z,102048.44
2023-02-12T13:24:00.558Z,102057.50
2023-02-12T13:28:04.521Z,102047.31
2023-02-12T13:32:34.771Z,102053.28
2023-02-12T13:36:37.269Z,102047.09
2023-02-12T13:40:40.659Z,102048.44
2023-02-12T13:45:27.800Z,102045.16
2023-02-12T13:49:54.439Z,102052.81
2023-02-12T13:54:38.031Z,102047.78
2023-02-12T13:58:44.608Z,102049.16
2023-02-12T14:02:52.637Z,102044.69
2023-02-12T14:07:18.542Z,102041.88
2023-02-12T14:11:26.712Z,102048.91
2023-02-12T14:15:34.622Z,102058.22
2023-02-12T14:19:39.003Z,102054.69
2023-02-12T14:23:46.186Z,102061.50
2023-02-12T14:27:54.539Z,102057.75
2023-02-12T14:31:56.651Z,102057.75
2023-02-12T14:36:18.155Z,102061.03
2023-02-12T14:40:36.498Z,102065.06
2023-02-12T14:44:57.481Z,102061.59
2023-02-12T14:49:05.938Z,102073.06
2023-02-12T14:53:27.132Z,102066.69
2023-02-12T14:57:40.510Z,102077.59
2023-02-12T15:01:42.483Z,102071.09
2023-02-12T15:06:03.247Z,102078.00
2023-02-12T15:10:17.709Z,102074.53
2023-02-12T15:14:32.014Z,102074.03
2023-02-12T15:18:55.715Z,102070.94
2023-02-12T15:22:57.565Z,102085.78
2023-02-12T15:27:01.480Z,102074.69
2023-02-12T15:31:05.064Z,102077.38
2023-02-12T15:35:07.527Z,102085.84
2023-02-12T15:39:09.360Z,102081.19
2023-02-12T15:43:18.144Z,102095.84
2023-02-12T15:47:24.742Z,102087.59
2023-02-12T15:51:38.775Z,102089.94
2023-02-12T15:55:44.508Z,102089.97
2023-02-12T15:59:54.369Z,102087.50
2023-02-12T16:03:58.446Z,102090.03
2023-02-12T16:08:01.233Z,102093.81
2023-02-12T16:12:05.741Z,102085.72
2023-02-12T16:16:30.017Z,102082.75
2023-02-12T16:20:32.275Z,102095.06
2023-02-12T16:24:36.920Z,102110.72
2023-02-12T16:28:38.954Z,102101.47
2023-02-12T16:32:42.899Z,102107.69
2023-02-12T16:36:47.796Z,102108.81
2023-02-12T16:41:19.445Z,102120.16
2023-02-12T16:45:27.519Z,102125.38
2023-02-12T16:49:30.346Z,102131.03
2023-02-12T16:53:35.031Z,102119.75
2023-02-12T16:57:36.977Z,102122.03
2023-02-12T17:01:38.905Z,102118.06
2023-02-12T17:05:46.012Z,102113.88
2023-02-12T17:09:48.234Z,102122.53
2023-02-12T17:13:52.487Z,102125.00
2023-02-12T17:17:54.352Z,102128.75
2023-02-12T17:21:59.586Z,102125.22
2023-02-12T17:26:01.507Z,102135.66
2023-02-12T17:30:04.889Z,102145.59
2023-02-12T17:34:06.957Z,102148.09
2023-02-12T17:38:08.831Z,102142.22
2023-02-12T17:42:11.632Z,102141.69
2023-02-12T17:46:20.283Z,102158.88
2023-02-12T17:50:24.998Z,102158.56
2023-02-12T17:54:26.962Z,102172.38
2023-02-12T17:58:28.921Z,102160.88
2023-02-12T18:02:30.906Z,102172.03
2023-02-12T18:06:49.528Z,102180.28
2023-02-12T18:11:05.039Z,102163.59
2023-02-12T18:15:08.387Z,102178.59
2023-02-12T18:19:10.231Z,102180.56
2023-02-12T18:23:12.032Z,102172.13
2023-02-12T18:27:14.221Z,102159.19
2023-02-12T18:31:17.132Z,102173.13
2023-02-12T18:35:31.569Z,102160.88
2023-02-12T18:39:33.542Z,102172.66
2023-02-12T18:43:39.758Z,102176.69
2023-02-12T18:47:42.175Z,102164.75
2023-02-12T18:51:47.785Z,102163.03
2023-02-12T18:55:52.598Z,102168.00
2023-02-12T18:59:54.916Z,102167.69
2023-02-12T19:04:00.667Z,102158.00
2023-02-12T19:08:03.143Z,102149.47
2023-02-12T19:12:07.028Z,102158.63
2023-02-12T19:16:14.976Z,102160.16
2023-02-12T19:20:16.975Z,102163.84
2023-02-12T19:24:18.994Z,102172.63
2023-02-12T19:28:26.152Z,102158.28
2023-02-12T19:32:28.133Z,102158.25
2023-02-12T19:36:32.806Z,102150.25
2023-02-12T19:40:34.772Z,102149.09
2023-02-12T19:44:39.468Z,102151.47
2023-02-12T19:48:41.485Z,102151.00
2023-02-12T19:52:43.464Z,102150.16
2023-02-12T19:56:45.722Z,102137.53
2023-02-12T20:00:53.674Z,102143.97
2023-02-12T20:04:55.877Z,102153.97
2023-02-12T20:08:57.844Z,102149.13
2023-02-12T20:13:00.009Z,102147.38
2023-02-12T20:17:01.847Z,102143.06
2023-02-12T20:21:19.244Z,102147.72
2023-02-12T20:25:21.253Z,102156.06
2023-02-12T20:29:23.370Z,102159.53
2023-02-12T20:33:26.272Z,102161.91
2023-02-12T20:37:28.147Z,102155.25
2023-02-12T20:41:30.177Z,102156.72
2023-02-12T20:45:31.997Z,102153.25
2023-02-12T20:49:34.409Z,102158.00
2023-02-12T20:53:39.644Z,102158.25
2023-02-12T20:57:41.587Z,102165.13
2023-02-12T21:01:43.526Z,102145.28
2023-02-12T21:05:46.291Z,102146.59
2023-02-12T21:09:50.258Z,102138.69
2023-02-12T21:14:02.431Z,102146.81
2023-02-12T21:18:05.287Z,102144.91
2023-02-12T21:22:07.197Z,102157.78
2023-02-12T21:26:17.210Z,102152.50
2023-02-12T21:30:21.752Z,102157.16
2023-02-12T21:34:23.786Z,102154.63
2023-02-12T21:38:25.609Z,102158.38
2023-02-12T21:42:28.771Z,102168.59
2023-02-12T21:46:34.335Z,102166.41
2023-02-12T21:50:36.267Z,102172.94
2023-02-12T21:54:38.059Z,102161.13
2023-02-12T21:58:40.791Z,102161.59
2023-02-12T22:02:42.696Z,102152.97
2023-02-12T22:06:48.195Z,102154.69
2023-02-12T22:10:50.096Z,102148.56
2023-02-12T22:14:51.926Z,102152.41
2023-02-12T22:18:56.125Z,102142.75
2023-02-12T22:22:58.417Z,102156.19
2023-02-12T22:27:00.951Z,102164.75
2023-02-12T22:31:06.888Z,102162.50
2023-02-12T22:35:09.183Z,102158.38
2023-02-12T22:39:13.000Z,102157.59
2023-02-12T22:43:14.866Z,102160.97
2023-02-12T22:47:16.644Z,102159.75
2023-02-12T22:51:31.810Z,102172.41
2023-02-12T22:55:36.511Z,102182.06
2023-02-12T22:59:38.489Z,102173.63
2023-02-12T23:03:44.071Z,102156.38
2023-02-12T23:07:45.895Z,102170.00
2023-02-12T23:11:48.240Z,102166.50
2023-02-12T23:15:50.141Z,102168.53
2023-02-12T23:19:51.920Z,102164.66
2023-02-12T23:23:53.915Z,102156.84
2023-02-12T23:27:55.709Z,102143.97
2023-02-12T23:31:57.577Z,102156.47
2023-02-12T23:35:59.676Z,102136.16
2023-02-12T23:40:01.480Z,102135.00
2023-02-12T23:44:03.812Z,102134.13
2023-02-12T23:48:05.918Z,102133.00
2023-02-12T23:52:07.723Z,102137.69
2023-02-12T23:56:09.591Z,102127.19
